KMGR/MGR METAR and TAF weather

Enter ICAO airport designator
Station Type Date Time Source
KMGR METAR 2020/09/23 00:10 UTC NOAA

KMGR 230010Z AUTO 00000KT 10SM CLR 22/17 A3010 RMK AO2


Station Type Date Time Source
KMGR Decoded METAR 2020/09/23 00:10 UTC NOAA

Moultrie, Moultrie Municipal Airport, GA, United States (KMGR) 31-05-05N 083-48-11W
Sep 22, 2020 - 08:10 PM EDT / 2020.09.23 0010 UTC
Wind: Calm:0
Visibility: 10 mile(s):0
Sky conditions: clear
Temperature: 71 F (22 C)
Dew Point: 62 F (17 C)
Relative Humidity: 73%
Pressure (altimeter): 30.1 in. Hg (1019 hPa)
ob: KMGR 230010Z AUTO 00000KT 10SM CLR 22/17 A3010 RMK AO2
cycle: 0

Station Type Date Time Source
KMGR TAF UTC NOAA

Error!

Example: see airport list